Time;durP1;ratioP1;P1;durP2;ratioP2;P2;SDS_P1;SDS_P2;PMS_P1;PMS_P2;Temp;Humidity;BMP_temperature;BMP_pressure;BME280_temperature;BME280_humidity;BME280_pressure;Samples;Min_cycle;Max_cycle;Signal;HPM_P1;HPM_P2
2021/01/07 02:33:50;;;;;;;12.10;8.27;;;1.90;99.90;;;;;;6099505;23;20171;-88
2021/01/07 03:14:14;;;;;;;11.05;8.10;;;1.60;99.90;;;;;;5758953;22;20396;-82
2021/01/07 03:16:41;;;;;;;12.57;9.50;;;1.60;99.90;;;;;;6296710;22;20174;-82
2021/01/07 03:19:08;;;;;;;11.40;8.70;;;1.60;99.90;;;;;;6262216;22;20467;-82
2021/01/07 03:21:41;;;;;;;12.47;10.87;;;1.60;99.90;;;;;;6251688;23;20166;-82
2021/01/07 03:24:09;;;;;;;11.40;8.75;;;1.60;99.90;;;;;;6251395;23;20460;-81
2021/01/07 03:26:37;;;;;;;12.30;9.00;;;1.60;99.90;;;;;;6251856;23;20172;-82
2021/01/07 03:29:04;;;;;;;10.10;8.03;;;1.60;99.90;;;;;;6263698;22;20418;-82
2021/01/07 03:31:34;;;;;;;11.97;9.03;;;1.60;99.90;;;;;;6251970;23;20456;-82
2021/01/07 03:34:01;;;;;;;10.80;8.83;;;1.60;99.90;;;;;;6264173;22;20398;-82
2021/01/07 03:36:28;;;;;;;11.60;9.80;;;1.60;99.90;;;;;;6252594;23;20505;-82
2021/01/07 03:38:55;;;;;;;11.85;8.85;;;1.60;99.90;;;;;;6251812;22;20465;-82
2021/01/07 03:41:23;;;;;;;11.07;8.80;;;1.60;99.90;;;;;;6264428;23;20167;-82
2021/01/07 03:43:50;;;;;;;11.93;8.03;;;1.60;99.90;;;;;;6252292;23;20432;-82
2021/01/07 03:46:17;;;;;;;11.90;9.10;;;1.60;99.90;;;;;;6251815;23;20438;-82
2021/01/07 03:48:45;;;;;;;12.10;9.73;;;1.60;99.90;;;;;;6251744;22;20434;-82
2021/01/07 03:51:13;;;;;;;13.90;9.70;;;1.60;99.90;;;;;;6253762;23;20464;-82
2021/01/07 03:53:40;;;;;;;10.90;8.20;;;1.60;99.90;;;;;;6253800;23;20471;-82
2021/01/07 03:56:07;;;;;;;10.70;8.60;;;1.60;99.90;;;;;;6266572;23;20397;-82
2021/01/07 03:58:34;;;;;;;11.40;9.52;;;1.60;99.90;;;;;;6255322;22;20846;-82
2021/01/07 04:01:02;;;;;;;10.80;8.45;;;1.60;99.90;;;;;;6251380;23;20183;-82
2021/01/07 04:03:29;;;;;;;10.10;8.47;;;1.60;99.90;;;;;;6250984;23;20262;-82
2021/01/07 04:05:58;;;;;;;10.80;8.80;;;1.60;99.90;;;;;;6251466;23;20442;-82
2021/01/07 04:08:29;;;;;;;10.50;8.50;;;1.60;99.90;;;;;;6251396;22;20912;-82
2021/01/07 04:10:57;;;;;;;10.87;8.30;;;1.60;99.90;;;;;;6251227;23;20407;-83
2021/01/07 04:13:24;;;;;;;11.87;9.17;;;1.60;99.90;;;;;;6252159;23;20415;-82
2021/01/07 04:15:51;;;;;;;12.48;9.07;;;1.60;99.90;;;;;;6251718;23;20758;-82
2021/01/07 04:18:18;;;;;;;9.13;7.40;;;1.60;99.90;;;;;;6250929;22;20198;-83
2021/01/07 04:20:46;;;;;;;10.40;8.90;;;1.60;99.90;;;;;;6251007;23;20172;-82
2021/01/07 04:23:15;;;;;;;10.33;8.10;;;1.60;99.90;;;;;;6251226;23;20416;-84
2021/01/07 04:25:42;;;;;;;9.17;8.23;;;1.60;99.90;;;;;;6251110;23;20488;-83
2021/01/07 04:28:10;;;;;;;10.03;8.97;;;1.60;99.90;;;;;;6250821;22;20453;-82
2021/01/07 04:30:37;;;;;;;10.67;8.90;;;1.60;99.90;;;;;;6251211;23;20429;-82
2021/01/07 04:33:05;;;;;;;11.38;8.52;;;1.60;99.90;;;;;;6251008;23;20412;-82
2021/01/07 04:35:32;;;;;;;10.20;8.20;;;1.60;99.90;;;;;;6250562;23;20195;-82
2021/01/07 04:37:59;;;;;;;9.90;7.50;;;1.60;99.90;;;;;;6252105;22;20430;-82
2021/01/07 04:40:27;;;;;;;11.53;9.33;;;1.60;99.90;;;;;;6251113;23;20468;-82
2021/01/07 04:42:54;;;;;;;9.75;7.47;;;1.60;99.90;;;;;;6251866;23;20474;-82
2021/01/07 04:45:22;;;;;;;10.88;8.63;;;1.60;99.90;;;;;;6252141;23;20187;-82
2021/01/07 04:47:50;;;;;;;9.20;7.43;;;1.60;99.90;;;;;;6250734;22;20171;-82
2021/01/07 04:50:18;;;;;;;10.07;8.00;;;1.70;99.90;;;;;;6251424;23;20444;-82
2021/01/07 04:52:45;;;;;;;9.93;8.73;;;1.60;99.90;;;;;;6250586;23;20174;-82
2021/01/07 04:55:13;;;;;;;10.17;8.70;;;1.60;99.90;;;;;;6250498;23;20417;-82
2021/01/07 04:57:42;;;;;;;11.40;9.07;;;1.60;99.90;;;;;;6250915;22;20405;-82
2021/01/07 05:00:11;;;;;;;9.27;7.53;;;1.60;99.90;;;;;;6262264;22;20488;-82
2021/01/07 05:02:39;;;;;;;12.50;9.03;;;1.60;99.90;;;;;;6250698;23;20798;-81
2021/01/07 05:05:08;;;;;;;8.80;7.20;;;1.60;99.90;;;;;;6251296;23;20517;-82
2021/01/07 05:07:38;;;;;;;9.47;6.93;;;1.60;99.90;;;;;;6249647;22;20422;-82
2021/01/07 05:10:07;;;;;;;11.80;9.00;;;1.60;99.90;;;;;;6250578;23;20414;-82
2021/01/07 05:12:35;;;;;;;11.85;8.63;;;1.60;99.90;;;;;;6250822;23;20472;-82
2021/01/07 05:15:06;;;;;;;10.73;8.20;;;1.60;99.90;;;;;;6250257;23;20644;-82
2021/01/07 05:17:38;;;;;;;10.82;8.65;;;1.60;99.90;;;;;;6250641;23;20414;-82
2021/01/07 05:20:10;;;;;;;10.70;8.80;;;1.60;99.90;;;;;;6250418;23;20231;-82
2021/01/07 05:22:38;;;;;;;9.55;8.43;;;1.60;99.90;;;;;;6250500;23;20424;-82
2021/01/07 05:25:09;;;;;;;10.43;8.53;;;1.60;99.90;;;;;;6250849;23;20788;-82
2021/01/07 05:27:39;;;;;;;10.25;8.15;;;1.60;99.90;;;;;;6250100;22;20402;-82
2021/01/07 05:30:08;;;;;;;9.73;7.40;;;1.50;99.90;;;;;;6250613;23;20206;-82
2021/01/07 05:32:37;;;;;;;9.53;7.23;;;1.50;99.90;;;;;;6250464;23;20406;-82
2021/01/07 05:35:07;;;;;;;10.10;8.60;;;1.60;99.90;;;;;;6250052;23;20403;-82
2021/01/07 05:37:36;;;;;;;10.40;7.50;;;1.60;99.90;;;;;;6250484;23;20422;-82
2021/01/07 05:40:06;;;;;;;9.03;7.10;;;1.60;99.90;;;;;;6250625;23;20424;-82
2021/01/07 05:42:42;;;;;;;9.93;8.27;;;1.60;99.90;;;;;;6250901;23;20443;-82
2021/01/07 05:45:12;;;;;;;7.80;6.37;;;1.60;99.90;;;;;;6250860;23;20433;-82
2021/01/07 05:47:42;;;;;;;9.53;7.60;;;1.60;99.90;;;;;;6251168;22;20407;-82
2021/01/07 05:50:10;;;;;;;10.53;8.57;;;1.60;99.90;;;;;;6250312;23;20415;-82
2021/01/07 05:52:43;;;;;;;9.80;7.73;;;1.50;99.90;;;;;;6250345;23;20424;-82
2021/01/07 05:55:12;;;;;;;8.70;6.35;;;1.50;99.90;;;;;;6250602;23;20422;-82
2021/01/07 05:57:40;;;;;;;9.00;6.83;;;1.50;99.90;;;;;;6251176;22;20174;-82
2021/01/07 06:00:11;;;;;;;8.40;6.73;;;1.50;99.90;;;;;;6250784;23;20419;-82
2021/01/07 06:02:39;;;;;;;10.30;8.03;;;1.50;99.90;;;;;;6263257;23;20371;-82
2021/01/07 06:05:09;;;;;;;9.10;7.30;;;1.50;99.90;;;;;;6250847;23;20442;-82
2021/01/07 06:07:37;;;;;;;9.07;6.50;;;1.50;99.90;;;;;;6251129;22;20405;-82
2021/01/07 06:10:08;;;;;;;8.57;7.17;;;1.50;99.90;;;;;;6250261;23;20493;-82
2021/01/07 06:12:35;;;;;;;9.53;7.37;;;1.50;99.90;;;;;;6251617;23;20414;-82
2021/01/07 06:15:06;;;;;;;8.23;6.68;;;1.50;99.90;;;;;;6252345;23;20452;-82
2021/01/07 06:17:34;;;;;;;9.30;6.53;;;1.50;99.90;;;;;;6262026;23;20217;-82
2021/01/07 06:20:01;;;;;;;9.60;7.80;;;1.50;99.90;;;;;;6249432;23;20449;-82
2021/01/07 06:22:30;;;;;;;10.82;7.28;;;1.50;99.90;;;;;;6248996;23;20415;-82
2021/01/07 06:24:57;;;;;;;8.97;7.23;;;1.50;99.90;;;;;;6248751;23;20278;-82
2021/01/07 06:27:27;;;;;;;8.70;7.10;;;1.50;99.90;;;;;;6249182;23;20421;-82
2021/01/07 06:29:57;;;;;;;8.43;6.30;;;1.50;99.90;;;;;;6249267;22;20438;-82
2021/01/07 06:32:28;;;;;;;9.10;6.37;;;1.50;99.90;;;;;;6250311;23;20410;-82
2021/01/07 06:34:58;;;;;;;8.47;6.93;;;1.50;99.90;;;;;;6249996;23;20731;-82
2021/01/07 06:37:30;;;;;;;7.03;6.13;;;1.50;99.90;;;;;;6249508;23;20414;-82
2021/01/07 06:39:58;;;;;;;7.40;6.23;;;1.50;99.90;;;;;;6250622;22;20744;-82
2021/01/07 06:42:26;;;;;;;8.07;6.13;;;1.50;99.90;;;;;;6249584;23;20801;-82
2021/01/07 06:44:57;;;;;;;8.87;6.27;;;1.50;99.90;;;;;;6249815;23;20440;-82
2021/01/07 06:47:25;;;;;;;8.50;6.83;;;1.50;99.90;;;;;;6249982;23;20415;-82
2021/01/07 06:49:52;;;;;;;7.70;5.77;;;1.50;99.90;;;;;;6262197;22;20446;-82
2021/01/07 06:52:23;;;;;;;7.10;6.13;;;1.50;99.90;;;;;;6252352;23;20421;-82
2021/01/07 06:54:53;;;;;;;6.97;5.37;;;1.50;99.90;;;;;;6252401;23;20860;-82
2021/01/07 06:57:21;;;;;;;7.53;6.40;;;1.50;99.90;;;;;;6251969;23;20472;-82
2021/01/07 06:59:57;;;;;;;8.77;6.77;;;1.60;99.90;;;;;;6255179;22;20191;-82
2021/01/07 07:02:24;;;;;;;7.87;6.97;;;1.50;99.90;;;;;;6250528;23;20791;-82
2021/01/07 07:05:00;;;;;;;7.40;6.43;;;1.50;99.90;;;;;;6250106;23;20768;-82
2021/01/07 07:08:12;;;;;;;9.83;7.40;;;1.50;99.90;;;;;;6250898;23;20400;-82
2021/01/07 07:11:12;;;;;;;8.27;6.80;;;1.50;99.90;;;;;;6262810;23;20928;-82
2021/01/07 07:13:43;;;;;;;8.23;6.10;;;1.50;99.90;;;;;;6250808;23;20463;-82
2021/01/07 07:16:15;;;;;;;10.30;9.10;;;1.50;99.90;;;;;;6251032;23;20183;-82
2021/01/07 07:18:42;;;;;;;9.70;7.17;;;1.50;99.90;;;;;;6250675;22;20437;-83
2021/01/07 07:21:21;;;;;;;8.43;7.37;;;1.60;99.90;;;;;;6250445;23;20413;-83
2021/01/07 07:23:49;;;;;;;9.33;7.30;;;1.60;99.90;;;;;;6250645;23;20780;-82
2021/01/07 07:26:34;;;;;;;8.13;6.27;;;1.60;99.90;;;;;;6250443;23;20484;-82
2021/01/07 07:29:07;;;;;;;6.77;5.73;;;1.60;99.90;;;;;;6249596;22;20437;-82
2021/01/07 07:31:38;;;;;;;7.53;5.57;;;1.50;99.90;;;;;;6262790;22;20439;-82
2021/01/07 07:34:06;;;;;;;9.30;7.13;;;1.60;99.90;;;;;;6251121;23;20441;-82
2021/01/07 07:36:34;;;;;;;9.70;6.90;;;1.60;99.90;;;;;;6250773;23;20414;-82
2021/01/07 07:39:03;;;;;;;8.73;6.57;;;1.60;99.90;;;;;;6250434;22;20437;-82
2021/01/07 07:41:39;;;;;;;8.80;7.27;;;1.50;99.90;;;;;;6263087;23;20470;-82
2021/01/07 07:44:07;;;;;;;9.73;7.87;;;1.50;99.90;;;;;;6251329;23;20459;-82
2021/01/07 07:46:36;;;;;;;11.00;9.47;;;1.50;99.90;;;;;;6250977;23;20488;-82
2021/01/07 07:49:05;;;;;;;13.03;9.33;;;1.50;99.90;;;;;;6251189;22;20465;-82
2021/01/07 07:51:32;;;;;;;12.07;8.80;;;1.50;99.90;;;;;;6251394;23;20475;-82
2021/01/07 07:54:04;;;;;;;30.97;27.87;;;1.50;99.90;;;;;;6252418;23;20920;-82
2021/01/07 07:56:32;;;;;;;36.10;32.43;;;1.50;99.90;;;;;;6250809;23;20410;-83
2021/01/07 07:59:01;;;;;;;17.60;15.70;;;1.50;99.90;;;;;;6248789;22;20441;-81
2021/01/07 08:01:42;;;;;;;13.00;11.57;;;1.60;99.90;;;;;;6249296;23;20186;-82
2021/01/07 08:04:15;;;;;;;12.80;9.43;;;1.50;99.90;;;;;;6249813;23;20833;-82
2021/01/07 08:06:43;;;;;;;9.17;8.10;;;1.50;99.90;;;;;;6262645;22;20414;-82
2021/01/07 08:09:12;;;;;;;10.00;8.10;;;1.50;99.90;;;;;;6249637;22;20433;-82
2021/01/07 08:11:54;;;;;;;10.80;8.70;;;1.60;99.90;;;;;;6249770;23;20452;-82
2021/01/07 08:14:23;;;;;;;9.63;7.57;;;1.60;99.90;;;;;;6249766;23;20736;-82
2021/01/07 08:16:55;;;;;;;11.03;8.37;;;1.60;99.90;;;;;;6250327;23;20159;-82
2021/01/07 08:19:25;;;;;;;10.70;8.43;;;1.60;99.90;;;;;;6249719;22;20924;-82
2021/01/07 08:21:53;;;;;;;10.17;8.77;;;1.60;99.90;;;;;;6261267;23;20402;-82
2021/01/07 08:24:22;;;;;;;8.73;7.20;;;1.60;99.90;;;;;;6249971;23;20417;-81
2021/01/07 08:27:09;;;;;;;13.63;10.23;;;1.60;99.90;;;;;;6250028;23;20460;-82
2021/01/07 08:29:39;;;;;;;11.40;9.17;;;1.60;99.90;;;;;;6249289;22;20442;-82
2021/01/07 08:32:10;;;;;;;8.67;7.27;;;1.60;99.90;;;;;;6250145;23;20407;-82
2021/01/07 08:34:38;;;;;;;12.47;7.57;;;1.60;99.90;;;;;;6249813;23;20419;-82
2021/01/07 08:37:10;;;;;;;9.03;7.00;;;1.50;99.90;;;;;;6261913;23;20386;-82
2021/01/07 08:39:38;;;;;;;10.68;9.05;;;1.60;99.90;;;;;;6249003;22;20727;-82
2021/01/07 08:42:07;;;;;;;9.47;8.00;;;1.60;99.90;;;;;;6250299;23;20274;-82
2021/01/07 08:44:35;;;;;;;12.20;10.13;;;1.60;99.90;;;;;;6249875;23;20473;-82
2021/01/07 08:47:03;;;;;;;10.20;8.97;;;1.60;99.90;;;;;;6261953;23;20397;-82
2021/01/07 08:49:30;;;;;;;11.52;9.35;;;1.60;99.90;;;;;;6248724;22;20883;-82
2021/01/07 08:52:00;;;;;;;12.10;10.50;;;1.70;99.90;;;;;;6249904;23;20269;-82
2021/01/07 08:54:28;;;;;;;13.77;12.33;;;1.70;99.90;;;;;;6249751;23;20410;-82
2021/01/07 08:56:56;;;;;;;14.00;12.50;;;1.70;99.90;;;;;;6250284;23;20434;-83
2021/01/07 08:59:26;;;;;;;12.90;11.60;;;1.60;99.90;;;;;;6251077;22;20437;-82
2021/01/07 09:01:56;;;;;;;11.00;9.48;;;1.60;99.90;;;;;;6251273;23;20421;-82
2021/01/07 09:04:28;;;;;;;9.27;7.93;;;1.60;99.90;;;;;;6250835;23;20233;-83
2021/01/07 09:07:06;;;;;;;11.33;8.93;;;1.50;99.90;;;;;;6251023;23;20413;-83
2021/01/07 09:09:40;;;;;;;8.50;7.57;;;1.60;99.90;;;;;;6249685;22;20465;-82
2021/01/07 09:12:19;;;;;;;7.53;6.07;;;1.60;99.90;;;;;;6250346;23;20410;-82
2021/01/07 09:14:55;;;;;;;8.30;7.30;;;1.60;99.90;;;;;;6249635;23;20448;-82
2021/01/07 09:17:24;;;;;;;7.30;5.37;;;1.60;99.90;;;;;;6250222;23;20421;-82
2021/01/07 09:19:52;;;;;;;7.93;6.07;;;1.60;99.90;;;;;;6251233;22;20429;-82
2021/01/07 09:22:25;;;;;;;7.60;6.70;;;1.60;99.90;;;;;;6250803;23;20758;-82
2021/01/07 09:24:53;;;;;;;8.20;6.13;;;1.60;99.90;;;;;;6251271;23;20932;-82
2021/01/07 09:27:22;;;;;;;8.60;7.03;;;1.60;99.90;;;;;;6251572;23;20410;-82
2021/01/07 09:29:49;;;;;;;8.53;6.70;;;1.60;99.90;;;;;;6251378;22;20454;-82
2021/01/07 09:32:17;;;;;;;9.70;8.13;;;1.60;99.90;;;;;;6264459;23;20448;-82
2021/01/07 09:34:46;;;;;;;8.30;7.17;;;1.60;99.90;;;;;;6254160;23;20418;-82
2021/01/07 09:37:16;;;;;;;7.13;5.50;;;1.60;99.90;;;;;;6254732;23;20406;-82
2021/01/07 10:09:47;;;;;;;;;;;;;;;;;;;;;
2021/01/07 10:22:38;;;;;;;6.65;5.70;;;1.80;99.90;;;;;;5928006;24;20415;-87
2021/01/07 10:25:09;;;;;;;7.30;6.37;;;1.90;99.90;;;;;;6130975;23;20195;-88
2021/01/07 10:27:36;;;;;;;6.63;5.90;;;1.90;99.90;;;;;;6163621;23;20465;-87
2021/01/07 10:30:16;;;;;;;6.03;5.53;;;1.90;99.90;;;;;;6163762;23;20407;-88
2021/01/07 10:32:44;;;;;;;6.77;6.07;;;1.90;99.90;;;;;;6163368;23;20419;-87
2021/01/07 10:35:11;;;;;;;6.60;4.50;;;1.90;99.90;;;;;;6163608;23;20408;-87
2021/01/07 10:37:40;;;;;;;5.83;5.17;;;1.90;99.90;;;;;;6163074;23;20459;-87
2021/01/07 10:40:18;;;;;;;6.60;5.80;;;2.00;99.90;;;;;;6163668;23;20462;-87
2021/01/07 10:42:48;;;;;;;5.40;4.50;;;2.00;99.90;;;;;;6163597;23;20222;-87
2021/01/07 10:45:15;;;;;;;6.13;5.10;;;2.00;99.90;;;;;;6163876;23;20444;-87
2021/01/07 10:48:00;;;;;;;;;;;;;;;;;;;;;
2021/01/07 12:56:33;;;;;;;5.80;5.07;;;2.60;99.90;;;;;;5141199;27;20549;-88
2021/01/07 12:59:07;;;;;;;6.13;5.50;;;3.20;99.90;;;;;;5137947;28;20463;-88
2021/01/07 13:01:40;;;;;;;6.30;5.37;;;3.10;99.90;;;;;;5119865;28;20952;-88
2021/01/07 13:04:13;;;;;;;7.73;6.97;;;3.10;99.90;;;;;;5121282;28;20553;-88
2021/01/07 13:06:49;;;;;;;8.17;7.37;;;3.10;99.90;;;;;;5139042;28;20813;-88
2021/01/07 13:09:22;;;;;;;6.37;5.70;;;3.00;99.90;;;;;;5120969;28;20501;-88
2021/01/07 13:11:51;;;;;;;8.07;7.37;;;3.00;99.90;;;;;;5121417;28;20439;-88
2021/01/07 13:14:18;;;;;;;7.20;6.50;;;3.00;99.90;;;;;;5120906;28;20957;-88
2021/01/07 13:16:46;;;;;;;6.03;5.20;;;3.00;99.90;;;;;;5121840;28;20451;-88
2021/01/07 13:19:13;;;;;;;7.70;7.00;;;3.00;99.90;;;;;;5121676;28;20500;-89
2021/01/07 13:21:42;;;;;;;6.03;5.53;;;2.90;99.90;;;;;;5120943;28;20813;-88
2021/01/07 13:24:10;;;;;;;5.80;5.20;;;3.00;99.90;;;;;;5121476;28;20466;-87
2021/01/07 13:26:37;;;;;;;6.30;5.70;;;2.90;99.90;;;;;;5122980;28;20539;-88
2021/01/07 13:29:06;;;;;;;6.83;6.13;;;2.90;99.90;;;;;;5120682;28;20498;-88
2021/01/07 13:31:33;;;;;;;6.20;5.40;;;3.00;99.90;;;;;;5120818;28;20482;-88
2021/01/07 13:34:01;;;;;;;5.30;4.80;;;3.00;99.90;;;;;;5121105;28;20447;-88
2021/01/07 13:36:30;;;;;;;6.23;5.70;;;2.90;99.90;;;;;;5119672;28;20492;-88
2021/01/07 13:39:04;;;;;;;6.38;5.70;;;2.90;99.90;;;;;;5118621;28;20434;-87
2021/01/07 13:41:37;;;;;;;6.50;5.90;;;3.00;99.90;;;;;;5101559;28;20194;-89
2021/01/07 14:03:39;;;;;;;6.90;6.20;;;2.90;99.90;;;;;;4954822;28;20575;-89
2021/01/07 14:06:09;;;;;;;6.60;5.90;;;2.90;99.90;;;;;;5025471;28;20475;-89
2021/01/07 14:08:42;;;;;;;6.30;5.70;;;2.90;99.90;;;;;;5101457;28;20481;-89
2021/01/07 14:11:10;;;;;;;6.40;5.80;;;2.90;99.90;;;;;;5104405;28;20478;-89
2021/01/07 14:13:38;;;;;;;7.50;6.70;;;3.00;99.90;;;;;;5106864;28;20476;-89
2021/01/07 14:16:06;;;;;;;5.60;5.00;;;2.90;99.90;;;;;;5123476;28;20471;-89
2021/01/07 14:18:35;;;;;;;7.13;6.40;;;2.90;99.90;;;;;;5107570;28;20479;-88
2021/01/07 14:21:05;;;;;;;6.23;5.67;;;2.90;99.90;;;;;;5109230;28;20451;-89
2021/01/07 14:23:33;;;;;;;8.33;5.60;;;2.90;99.90;;;;;;5107435;28;20456;-89
2021/01/07 14:26:05;;;;;;;6.30;5.70;;;2.90;99.90;;;;;;5106850;28;20903;-89
2021/01/07 14:28:40;;;;;;;7.63;6.93;;;2.90;99.90;;;;;;5123858;28;20471;-88
2021/01/07 14:31:10;;;;;;;6.17;5.43;;;2.90;99.90;;;;;;5107075;28;20443;-88
2021/01/07 14:33:40;;;;;;;6.40;5.70;;;2.90;99.90;;;;;;5086385;28;20449;-89
2021/01/07 14:36:12;;;;;;;6.80;5.90;;;2.90;99.90;;;;;;5107170;28;20447;-89
2021/01/07 14:38:40;;;;;;;5.60;5.07;;;2.90;99.90;;;;;;5106118;28;20471;-88
2021/01/07 14:41:08;;;;;;;6.70;6.10;;;2.90;99.90;;;;;;5105000;28;20450;-89
2021/01/07 14:43:36;;;;;;;6.80;6.10;;;2.90;99.90;;;;;;5106411;28;20448;-88
2021/01/07 14:46:05;;;;;;;7.00;6.40;;;2.90;99.90;;;;;;5123948;28;20464;-89
2021/01/07 14:48:38;;;;;;;7.20;6.20;;;2.90;99.90;;;;;;5106268;28;20474;-88
2021/01/07 14:51:06;;;;;;;6.77;6.10;;;2.90;99.90;;;;;;5123652;28;20448;-88
2021/01/07 14:53:35;;;;;;;9.20;8.30;;;2.90;99.90;;;;;;5106546;28;20456;-89
2021/01/07 14:56:05;;;;;;;11.67;10.27;;;2.80;99.90;;;;;;5106515;28;20455;-89
2021/01/07 14:58:58;;;;;;;8.53;7.73;;;2.80;99.90;;;;;;5123480;28;20460;-88
2021/01/07 15:01:29;;;;;;;10.10;9.10;;;2.80;99.90;;;;;;5106686;28;20459;-88
2021/01/07 15:04:24;;;;;;;12.03;10.83;;;2.80;99.90;;;;;;5114433;28;20448;-88
2021/01/07 15:06:55;;;;;;;14.10;12.90;;;2.70;99.90;;;;;;5108421;28;20474;-89
2021/01/07 15:09:49;;;;;;;9.13;8.33;;;2.80;99.90;;;;;;5106405;28;20472;-88
2021/01/07 15:12:21;;;;;;;8.80;8.00;;;2.80;99.90;;;;;;5106472;28;20444;-88
2021/01/07 15:14:58;;;;;;;8.53;7.73;;;2.70;99.90;;;;;;5105700;28;20444;-88
2021/01/07 15:17:43;;;;;;;7.87;7.07;;;2.70;99.90;;;;;;5105655;28;20436;-89
2021/01/07 15:20:19;;;;;;;8.63;7.83;;;2.70;99.90;;;;;;5105933;28;20444;-89
2021/01/07 15:22:53;;;;;;;7.03;6.33;;;2.70;99.90;;;;;;5105798;28;20448;-88
2021/01/07 15:25:28;;;;;;;10.20;9.20;;;2.70;99.90;;;;;;5105360;28;20470;-89
2021/01/07 15:28:02;;;;;;;9.80;8.83;;;2.70;99.90;;;;;;5106152;28;20552;-88
2021/01/07 15:30:39;;;;;;;8.10;7.30;;;2.80;99.90;;;;;;5106094;28;20941;-88
2021/01/07 15:33:08;;;;;;;9.17;8.33;;;2.70;99.90;;;;;;5105638;28;20461;-88
2021/01/07 15:35:38;;;;;;;7.67;6.97;;;2.70;99.90;;;;;;5106272;28;20493;-89
2021/01/07 15:38:45;;;;;;;8.70;7.83;;;2.60;99.90;;;;;;5105559;28;20540;-89
2021/01/07 15:42:01;;;;;;;9.63;8.73;;;2.60;99.90;;;;;;5106375;28;20450;-89
2021/01/07 15:45:02;;;;;;;10.77;9.77;;;2.60;99.90;;;;;;5122853;28;20539;-88
2021/01/07 15:48:02;;;;;;;9.40;8.50;;;2.60;99.90;;;;;;5093739;28;20460;-88
2021/01/07 15:50:32;;;;;;;8.77;7.90;;;2.60;99.90;;;;;;5103599;28;20432;-89
2021/01/07 15:53:44;;;;;;;9.27;8.10;;;2.60;99.90;;;;;;5103243;28;20791;-89
2021/01/07 15:56:30;;;;;;;8.57;7.80;;;2.60;99.90;;;;;;5059609;28;20450;-88
2021/01/07 15:59:08;;;;;;;8.43;7.73;;;2.60;99.90;;;;;;5080377;28;20472;-88
2021/01/07 16:01:40;;;;;;;10.13;9.13;;;2.60;99.90;;;;;;5115888;28;20435;-88
2021/01/07 16:04:16;;;;;;;10.90;9.90;;;2.60;99.90;;;;;;5122143;28;20448;-88
2021/01/07 16:06:49;;;;;;;12.37;11.27;;;2.60;99.90;;;;;;5121775;28;20447;-88
2021/01/07 16:09:18;;;;;;;11.87;10.67;;;2.60;99.90;;;;;;5109156;28;20495;-88
2021/01/07 16:11:45;;;;;;;11.00;9.97;;;2.60;99.90;;;;;;5104579;28;20451;-88
2021/01/07 16:14:13;;;;;;;11.87;10.70;;;2.80;99.90;;;;;;5120930;28;20452;-88
2021/01/07 16:16:44;;;;;;;11.67;10.47;;;2.60;99.90;;;;;;5107187;28;20484;-88
2021/01/07 16:19:37;;;;;;;11.40;10.30;;;2.60;99.90;;;;;;5109643;28;20467;-89
2021/01/07 16:22:18;;;;;;;14.20;12.70;;;2.60;99.90;;;;;;5122484;28;20944;-89
2021/01/07 16:24:51;;;;;;;13.50;12.30;;;2.60;99.90;;;;;;5121420;28;20478;-89
2021/01/07 16:27:24;;;;;;;14.70;13.30;;;2.50;99.90;;;;;;5106255;28;20439;-89
2021/01/07 16:29:52;;;;;;;13.00;11.80;;;2.60;99.90;;;;;;5104048;28;20468;-89
2021/01/07 16:32:20;;;;;;;12.20;11.00;;;2.50;99.90;;;;;;5104767;28;20448;-89
2021/01/07 16:34:48;;;;;;;11.40;10.40;;;2.50;99.90;;;;;;5104126;28;20444;-88
2021/01/07 16:37:18;;;;;;;12.23;11.13;;;2.50;99.90;;;;;;5104669;28;20443;-89
2021/01/07 16:39:47;;;;;;;13.63;12.20;;;2.50;99.90;;;;;;5103684;28;20213;-89
2021/01/07 16:42:16;;;;;;;14.17;12.87;;;2.60;99.90;;;;;;5105254;28;20444;-89
2021/01/07 16:44:45;;;;;;;12.30;11.00;;;2.50;99.90;;;;;;5104313;28;20501;-88
2021/01/07 16:47:12;;;;;;;15.40;13.90;;;2.50;99.90;;;;;;5103918;28;20435;-88
2021/01/07 16:49:40;;;;;;;16.67;15.03;;;2.60;99.90;;;;;;5104581;28;20985;-88
2021/01/07 16:52:07;;;;;;;14.40;13.10;;;2.60;99.90;;;;;;5103949;28;20440;-88
2021/01/07 16:54:35;;;;;;;15.10;13.63;;;2.60;99.90;;;;;;5103666;28;20463;-88
2021/01/07 16:57:04;;;;;;;13.10;11.80;;;2.60;99.90;;;;;;5104383;28;20465;-88
2021/01/07 16:59:31;;;;;;;15.80;14.20;;;2.50;99.90;;;;;;5118588;28;20487;-88
2021/01/07 17:01:58;;;;;;;19.27;15.97;;;2.50;99.90;;;;;;5103579;28;20436;-88
2021/01/07 17:04:26;;;;;;;17.93;16.20;;;2.50;99.90;;;;;;5104307;28;20440;-88
2021/01/07 17:07:11;;;;;;;17.60;15.80;;;2.50;99.90;;;;;;5102989;28;20482;-88
2021/01/07 17:09:39;;;;;;;17.70;15.87;;;2.50;99.90;;;;;;5104029;28;20973;-88
2021/01/07 17:12:08;;;;;;;16.60;14.90;;;2.50;99.90;;;;;;5104289;28;20438;-88
2021/01/07 17:14:36;;;;;;;17.10;15.30;;;2.50;99.90;;;;;;5121473;28;20458;-88
2021/01/07 17:17:04;;;;;;;17.33;14.60;;;2.50;99.90;;;;;;5120974;28;20448;-88
2021/01/07 17:19:35;;;;;;;17.80;15.90;;;2.50;99.90;;;;;;5103806;28;20833;-88
2021/01/07 17:22:05;;;;;;;14.17;12.67;;;2.60;99.90;;;;;;5120422;28;20444;-88
2021/01/07 17:24:33;;;;;;;15.00;13.40;;;2.50;99.90;;;;;;5103806;28;20481;-88
2021/01/07 17:27:05;;;;;;;15.03;13.47;;;2.50;99.90;;;;;;5104821;28;20454;-88
2021/01/07 17:29:36;;;;;;;15.30;13.70;;;2.50;99.90;;;;;;5123134;28;20451;-88
2021/01/07 17:32:05;;;;;;;15.17;12.90;;;2.50;99.90;;;;;;5123891;28;20496;-88
2021/01/07 17:34:33;;;;;;;14.77;12.93;;;2.50;99.90;;;;;;5124615;28;20436;-88
2021/01/07 17:37:05;;;;;;;13.97;12.57;;;2.50;99.90;;;;;;5096128;23;20494;-80
2021/01/07 17:39:32;;;;;;;14.63;13.10;;;2.50;99.90;;;;;;5053901;28;20503;-81
2021/01/07 17:42:04;;;;;;;14.03;11.93;;;2.50;99.90;;;;;;5041771;28;20483;-80
2021/01/07 17:44:32;;;;;;;14.43;12.93;;;2.40;99.90;;;;;;5018388;28;20452;-80
2021/01/07 17:47:02;;;;;;;16.37;14.10;;;2.40;99.90;;;;;;5025364;28;20451;-80
2021/01/07 17:49:30;;;;;;;17.37;13.60;;;2.40;99.90;;;;;;5038364;28;20884;-80
2021/01/07 17:51:57;;;;;;;14.73;13.20;;;2.40;99.90;;;;;;5037988;28;21048;-80
2021/01/07 17:54:24;;;;;;;16.77;13.93;;;2.40;99.90;;;;;;5050518;28;20505;-80
2021/01/07 17:56:52;;;;;;;18.03;14.40;;;2.40;99.90;;;;;;5040774;28;20452;-80
2021/01/07 17:59:20;;;;;;;14.80;13.30;;;2.40;99.90;;;;;;5037871;28;20476;-81
2021/01/07 18:01:48;;;;;;;14.17;12.43;;;2.40;99.90;;;;;;5024889;28;20543;-80
2021/01/07 18:04:16;;;;;;;16.33;13.60;;;2.40;99.90;;;;;;5030049;28;20462;-80
2021/01/07 18:06:43;;;;;;;15.83;13.97;;;2.40;99.90;;;;;;5037841;28;20827;-80
2021/01/07 18:09:11;;;;;;;17.63;14.70;;;2.40;99.90;;;;;;5038066;28;20981;-80
2021/01/07 18:11:54;;;;;;;16.00;14.33;;;2.40;99.90;;;;;;5038413;28;20501;-81
2021/01/07 18:14:22;;;;;;;17.37;14.43;;;2.40;99.90;;;;;;5050058;28;20577;-80
2021/01/07 18:16:49;;;;;;;18.67;16.10;;;2.40;99.90;;;;;;5037999;28;20912;-80
2021/01/07 18:19:19;;;;;;;19.17;16.87;;;2.40;99.90;;;;;;5040334;28;20471;-82
2021/01/07 18:21:47;;;;;;;17.77;15.80;;;2.40;99.90;;;;;;5044576;28;20448;-80
2021/01/07 18:24:14;;;;;;;20.00;16.73;;;2.40;99.90;;;;;;5044432;28;20463;-80
2021/01/07 18:26:41;;;;;;;19.67;17.53;;;2.40;99.90;;;;;;5040488;28;20467;-82
2021/01/07 18:29:09;;;;;;;18.27;15.73;;;2.40;99.90;;;;;;5055540;28;20997;-82
2021/01/07 18:31:36;;;;;;;19.70;17.17;;;2.40;99.90;;;;;;5039552;28;20487;-82
2021/01/07 18:34:03;;;;;;;19.07;16.70;;;2.40;99.90;;;;;;5037547;28;20441;-82
2021/01/07 18:36:32;;;;;;;18.90;16.53;;;2.40;99.90;;;;;;5019742;28;20467;-82
2021/01/07 18:38:59;;;;;;;19.90;17.77;;;2.40;99.90;;;;;;5019429;28;20464;-82
2021/01/07 18:41:26;;;;;;;22.50;18.57;;;2.40;99.90;;;;;;5020184;28;20487;-82
2021/01/07 18:44:12;;;;;;;23.77;18.17;;;2.40;99.90;;;;;;5019307;28;20448;-82
2021/01/07 18:46:39;;;;;;;20.60;17.63;;;2.40;99.90;;;;;;5032051;28;20503;-82
2021/01/07 18:49:07;;;;;;;21.63;19.33;;;2.40;99.90;;;;;;5055286;28;20567;-82
2021/01/07 18:51:35;;;;;;;20.63;17.73;;;2.40;99.90;;;;;;5055875;28;20495;-82
2021/01/07 18:54:02;;;;;;;20.40;17.83;;;2.40;99.90;;;;;;5039608;28;20458;-82
2021/01/07 18:56:30;;;;;;;20.80;16.37;;;2.40;99.90;;;;;;5039480;28;20871;-82
2021/01/07 18:58:57;;;;;;;20.47;17.23;;;2.40;99.90;;;;;;5040259;28;20455;-82
2021/01/07 19:01:24;;;;;;;20.63;16.80;;;2.40;99.90;;;;;;5037277;28;20488;-82
2021/01/07 19:03:51;;;;;;;25.03;20.13;;;2.40;99.90;;;;;;5036211;28;20444;-82
2021/01/07 19:06:19;;;;;;;26.80;21.23;;;2.40;99.90;;;;;;5040324;28;20476;-82
2021/01/07 19:08:47;;;;;;;21.63;17.33;;;2.40;99.90;;;;;;5020608;28;20555;-82
2021/01/07 19:11:15;;;;;;;20.93;16.93;;;2.40;99.90;;;;;;5038207;28;20451;-82
2021/01/07 19:13:42;;;;;;;21.07;16.73;;;2.40;99.90;;;;;;5041185;28;20466;-82
2021/01/07 19:16:10;;;;;;;21.27;16.90;;;2.40;99.90;;;;;;5043705;28;20431;-82
2021/01/07 19:18:37;;;;;;;22.83;17.40;;;2.40;99.90;;;;;;5041635;28;20495;-82
2021/01/07 19:21:05;;;;;;;23.53;18.20;;;2.40;99.90;;;;;;5038108;28;20458;-82
2021/01/07 19:23:32;;;;;;;21.10;16.70;;;2.40;99.90;;;;;;5039994;28;20477;-82
2021/01/07 19:26:01;;;;;;;22.67;17.70;;;2.40;99.90;;;;;;5044411;28;20468;-82